Time;durP1;ratioP1;P1;durP2;ratioP2;P2;SDS_P1;SDS_P2;PMS_P1;PMS_P2;Temp;Humidity;BMP_temperature;BMP_pressure;BME280_temperature;BME280_humidity;BME280_pressure;Samples;Min_cycle;Max_cycle;Signal;HPM_P1;HPM_P2
2022/08/22 00:01:55;;;;;;;12.30;9.23;;;;;;;19.64;70.79;99872.12;1527071;91;27767;-69
2022/08/22 00:04:27;;;;;;;10.15;8.30;;;;;;;19.61;70.57;99871.50;1520417;93;25783;-68
2022/08/22 00:07:17;;;;;;;11.43;9.20;;;;;;;19.58;70.56;99877.74;1590913;90;25699;-69
2022/08/22 00:10:12;;;;;;;11.38;8.75;;;;;;;19.56;70.58;99875.41;1575720;90;25843;-69
2022/08/22 00:12:50;;;;;;;10.58;8.98;;;;;;;19.52;70.61;99877.31;1546681;90;25755;-69
2022/08/22 00:15:34;;;;;;;9.80;8.80;;;;;;;19.50;70.68;99876.91;1582263;90;27480;-68
2022/08/22 00:18:40;;;;;;;11.65;9.28;;;;;;;19.48;70.74;99879.25;1581987;90;25778;-69
2022/08/22 00:21:17;;;;;;;15.65;9.10;;;;;;;19.44;70.85;99883.91;1578030;89;25642;-68
2022/08/22 00:23:55;;;;;;;12.33;9.63;;;;;;;19.40;70.89;99883.09;1550893;89;26495;-69
2022/08/22 00:26:51;;;;;;;9.85;8.85;;;;;;;19.38;71.00;99884.84;1570038;89;25784;-69
2022/08/22 00:29:52;;;;;;;10.75;8.75;;;;;;;19.37;71.04;99889.33;1587853;88;27504;-68
2022/08/22 00:32:51;;;;;;;10.43;8.73;;;;;;;19.34;71.07;99884.03;1594609;88;25796;-71
2022/08/22 00:35:38;;;;;;;10.72;9.55;;;;;;;19.29;71.25;99883.02;1594870;89;25781;-70
2022/08/22 00:38:11;;;;;;;12.73;9.85;;;;;;;19.27;71.41;99885.91;1616280;86;25493;-70
2022/08/22 00:41:04;;;;;;;11.48;8.88;;;;;;;19.23;71.49;99883.92;1641145;85;25524;-70
2022/08/22 00:44:19;;;;;;;12.15;9.68;;;;;;;19.22;71.50;99887.03;1644902;86;27572;-69
2022/08/22 00:47:11;;;;;;;12.40;9.55;;;;;;;19.19;71.67;99883.70;1648735;86;25666;-70
2022/08/22 00:53:04;;;;;;;11.90;9.60;;;;;;;19.14;71.89;99892.27;1631135;87;25694;-69
2022/08/22 00:55:47;;;;;;;13.13;10.43;;;;;;;19.12;71.92;99894.02;1627560;86;25790;-69
2022/08/22 00:58:37;;;;;;;12.37;9.83;;;;;;;19.11;72.00;99891.05;1630400;87;27410;-69
2022/08/22 01:01:08;;;;;;;12.30;9.38;;;;;;;19.12;72.25;99887.72;1621806;86;25655;-69
2022/08/22 01:03:49;;;;;;;10.55;9.55;;;;;;;19.11;72.18;99887.53;1606396;87;25803;-70
2022/08/22 01:06:43;;;;;;;11.35;9.75;;;;;;;19.09;72.27;99883.80;1633855;87;26189;-69
2022/08/22 01:09:36;;;;;;;12.95;9.85;;;;;;;19.09;72.41;99890.65;1628976;87;26390;-70
2022/08/22 01:12:23;;;;;;;11.35;10.10;;;;;;;19.07;72.30;99892.98;1628789;88;27644;-69
2022/08/22 01:15:04;;;;;;;10.53;9.28;;;;;;;19.07;72.49;99890.24;1628242;88;25672;-69
2022/08/22 01:17:45;;;;;;;10.78;9.08;;;;;;;19.06;72.53;99891.40;1627887;88;25484;-69
2022/08/22 01:23:49;;;;;;;10.90;9.15;;;;;;;19.01;72.61;99901.33;1622855;87;25638;-67
2022/08/22 01:26:38;;;;;;;10.58;9.58;;;;;;;18.97;72.57;99901.30;1620678;87;27716;-68
2022/08/22 01:29:25;;;;;;;;;;;;;;;18.95;72.65;99905.00;1634741;86;25781;-70
2022/08/22 01:32:31;;;;;;;12.07;9.68;;;;;;;18.93;72.81;99901.82;1651158;85;25722;-70
2022/08/22 01:35:20;;;;;;;11.95;9.68;;;;;;;18.91;72.56;99900.63;1653539;85;25844;-68
2022/08/22 01:38:14;;;;;;;15.30;10.13;;;;;;;18.88;72.61;99905.48;1654370;85;25805;-68
2022/08/22 01:41:23;;;;;;;12.63;10.30;;;;;;;18.85;72.83;99906.45;1653805;85;27539;-68
2022/08/22 01:44:11;;;;;;;16.07;10.23;;;;;;;18.80;72.71;99902.64;1652562;85;25484;-68
2022/08/22 01:46:43;;;;;;;16.80;11.00;;;;;;;18.75;72.83;99907.09;1648401;85;25625;-68
2022/08/22 01:49:30;;;;;;;12.03;10.43;;;;;;;18.67;73.02;99905.42;1639984;85;25618;-68
2022/08/22 01:52:04;;;;;;;11.97;9.65;;;;;;;18.66;73.20;99900.53;1653931;85;25690;-68
2022/08/22 01:54:57;;;;;;;12.88;10.15;;;;;;;18.69;73.39;99906.42;1653988;85;27606;-68
2022/08/22 01:57:25;;;;;;;13.35;10.48;;;;;;;18.69;73.37;99904.46;1653164;85;25653;-68
2022/08/22 01:59:57;;;;;;;12.18;10.68;;;;;;;18.70;73.36;99906.64;1659037;84;25769;-68
2022/08/22 02:02:51;;;;;;;12.23;9.58;;;;;;;18.70;73.21;99906.05;1693345;83;26226;-68
2022/08/22 02:05:30;;;;;;;13.58;10.32;;;;;;;18.69;73.32;99904.46;1692198;83;25725;-68
2022/08/22 02:08:02;;;;;;;12.70;9.78;;;;;;;18.68;73.19;99900.16;1665557;85;27648;-68
2022/08/22 02:10:48;;;;;;;13.03;10.00;;;;;;;18.67;73.18;99904.83;1679435;83;25853;-69
2022/08/22 02:13:47;;;;;;;14.15;9.95;;;;;;;18.66;73.22;99897.80;1681048;83;25697;-69
2022/08/22 02:16:35;;;;;;;12.47;10.48;;;;;;;18.63;73.21;99898.53;1691462;83;26231;-69
2022/08/22 02:19:19;;;;;;;12.25;10.10;;;;;;;18.63;73.40;99902.64;1683696;83;25725;-68
2022/08/22 02:21:57;;;;;;;10.93;9.50;;;;;;;18.61;73.53;99900.05;1676364;85;27458;-68
2022/08/22 02:24:35;;;;;;;14.73;10.00;;;;;;;18.60;73.65;99901.23;1695596;84;25749;-69
2022/08/22 02:27:26;;;;;;;11.50;10.08;;;;;;;18.61;73.83;99904.16;1695983;83;25654;-68
2022/08/22 02:30:07;;;;;;;17.10;11.03;;;;;;;18.62;73.98;99899.69;1690816;83;25699;-68
2022/08/22 02:32:45;;;;;;;15.53;10.13;;;;;;;18.64;74.12;99903.42;1675563;85;25657;-69
2022/08/22 02:35:29;;;;;;;14.63;10.58;;;;;;;18.65;74.22;99903.64;1684131;82;27710;-69
2022/08/22 02:38:27;;;;;;;15.48;10.50;;;;;;;18.66;74.39;99896.42;1687852;83;25697;-67
2022/08/22 02:41:17;;;;;;;12.18;10.55;;;;;;;18.69;74.30;99900.94;1675704;84;25679;-68
2022/08/22 02:43:51;;;;;;;11.68;10.10;;;;;;;18.69;74.37;99907.20;1684130;84;25574;-68
2022/08/22 02:46:29;;;;;;;12.80;10.23;;;;;;;18.70;74.33;99904.67;1687529;84;25722;-68
2022/08/22 02:49:34;;;;;;;13.25;10.82;;;;;;;18.71;74.35;99907.64;1673714;85;27534;-68
2022/08/22 02:52:24;;;;;;;10.63;9.53;;;;;;;18.74;74.44;99910.20;1684681;84;25727;-68
2022/08/22 02:55:16;;;;;;;14.30;11.12;;;;;;;18.74;74.52;99913.72;1686938;82;25581;-69
2022/08/22 02:57:51;;;;;;;15.93;11.12;;;;;;;18.76;74.57;99918.27;1687806;83;26050;-69
2022/08/22 03:00:32;;;;;;;13.15;10.60;;;;;;;18.77;74.51;99919.05;1687833;84;25524;-68
2022/08/22 03:03:05;;;;;;;11.65;10.23;;;;;;;18.78;74.57;99923.34;1656903;85;27449;-69
2022/08/22 03:05:40;;;;;;;14.13;10.82;;;;;;;18.78;74.56;99925.52;1660981;84;25619;-68
2022/08/22 03:08:27;;;;;;;15.68;11.10;;;;;;;18.78;74.54;99922.78;1668806;85;25615;-68
2022/08/22 03:11:18;;;;;;;11.95;10.10;;;;;;;18.80;74.62;99918.30;1687797;83;25731;-68
2022/08/22 03:14:11;;;;;;;13.90;11.00;;;;;;;18.80;74.66;99921.05;1669050;85;25722;-67
2022/08/22 03:17:07;;;;;;;12.33;10.72;;;;;;;18.81;74.76;99929.45;1687740;83;27505;-68
2022/08/22 03:20:05;;;;;;;12.30;10.15;;;;;;;18.81;74.82;99930.27;1675489;85;25839;-68
2022/08/22 03:22:59;;;;;;;;;;;;;;;18.84;74.94;99927.38;1658149;85;25727;-66
2022/08/22 03:25:42;;;;;;;14.85;10.65;;;;;;;18.86;75.22;99930.52;1659332;85;25576;-70
2022/08/22 03:28:23;;;;;;;14.53;11.18;;;;;;;18.86;75.07;99926.41;1653915;85;25807;-69
2022/08/22 03:30:58;;;;;;;13.80;10.75;;;;;;;18.88;75.23;99926.03;1649460;85;27626;-69
2022/08/22 03:33:29;;;;;;;12.63;10.45;;;;;;;;;;1659071;85;25804;-69
2022/08/22 03:39:10;;;;;;;14.45;10.45;;;;;;;18.87;75.13;99938.18;1498835;95;25855;-69
2022/08/22 03:42:03;;;;;;;12.55;10.98;;;;;;;18.87;75.15;99936.81;1495947;95;26077;-69
2022/08/22 03:45:04;;;;;;;13.65;10.48;;;;;;;18.88;75.20;99935.62;1486762;96;29810;-69
2022/08/22 03:47:45;;;;;;;13.03;11.18;;;;;;;18.88;75.16;99932.89;1503122;94;25926;-69
2022/08/22 03:50:40;;;;;;;15.03;10.78;;;;;;;18.88;75.11;99926.81;1512950;93;25809;-69
2022/08/22 03:53:36;;;;;;;14.38;10.65;;;;;;;18.88;75.13;99935.04;1529341;93;26125;-70
2022/08/22 03:56:50;;;;;;;12.68;11.10;;;;;;;18.88;75.14;99932.89;1513697;94;25810;-70
2022/08/22 04:00:01;;;;;;;16.02;12.80;;;;;;;18.87;75.16;99939.55;1523718;93;27547;-68
2022/08/22 04:02:48;;;;;;;13.68;11.10;;;;;;;18.85;75.20;99944.03;1444613;97;25779;-67
2022/08/22 04:05:50;;;;;;;14.90;11.20;;;;;;;18.82;75.01;99953.77;1444571;98;25662;-69
2022/08/22 04:08:55;;;;;;;13.78;10.50;;;;;;;18.81;75.32;99956.29;1444024;99;25663;-68
2022/08/22 04:11:50;;;;;;;14.47;11.00;;;;;;;18.79;75.33;99964.06;1449245;97;25604;-68
2022/08/22 04:14:25;;;;;;;13.05;11.53;;;;;;;18.81;75.70;99967.81;1457571;97;27596;-67
2022/08/22 04:17:12;;;;;;;15.18;10.60;;;;;;;18.79;75.62;99968.77;1481596;95;25782;-67
2022/08/22 04:20:07;;;;;;;12.53;10.40;;;;;;;18.81;75.82;99966.44;1484819;95;25670;-67
2022/08/22 04:22:55;;;;;;;13.58;10.28;;;;;;;18.82;75.90;99971.58;1482419;95;26134;-70
2022/08/22 04:25:48;;;;;;;16.20;10.78;;;;;;;18.86;76.02;99972.98;1492081;93;25804;-69
2022/08/22 04:28:20;;;;;;;15.32;11.57;;;;;;;18.88;75.93;99963.81;1494535;94;27518;-68
2022/08/22 04:31:04;;;;;;;16.52;11.35;;;;;;;18.88;75.84;99973.98;1490557;94;25702;-67
2022/08/22 04:33:47;;;;;;;14.63;11.35;;;;;;;18.90;75.84;99966.18;1490053;96;26003;-68
2022/08/22 04:36:40;;;;;;;15.43;11.73;;;;;;;18.91;75.95;99969.14;1510085;94;25662;-68
2022/08/22 04:39:24;;;;;;;13.68;10.65;;;;;;;18.91;75.96;99970.51;1527908;90;25660;-69
2022/08/22 04:42:15;;;;;;;15.60;11.73;;;;;;;18.95;76.13;99968.02;1559031;89;29889;-69
2022/08/22 04:45:09;;;;;;;17.07;11.18;;;;;;;19.00;76.24;99968.25;1554303;90;25445;-69
2022/08/22 04:48:11;;;;;;;16.05;11.30;;;;;;;19.02;76.35;99965.36;1536538;90;25503;-69
2022/08/22 04:50:57;;;;;;;17.40;11.45;;;;;;;19.07;76.22;99972.47;1564909;89;25633;-69
2022/08/22 04:53:47;;;;;;;18.50;11.78;;;;;;;19.09;76.12;99978.36;1568993;90;25309;-68
2022/08/22 04:56:35;;;;;;;14.05;10.72;;;;;;;19.12;76.24;99988.58;1571960;89;28069;-67
2022/08/22 04:59:12;;;;;;;17.25;10.78;;;;;;;19.17;76.29;99989.62;1583914;88;25698;-67
2022/08/22 05:01:54;;;;;;;17.87;12.78;;;;;;;19.22;76.48;99985.17;1577898;89;25499;-67
2022/08/22 05:04:32;;;;;;;15.10;10.38;;;;;;;19.28;76.55;99980.72;1579411;89;25638;-67
2022/08/22 05:07:12;;;;;;;15.38;10.78;;;;;;;19.33;76.40;99980.38;1615553;86;25856;-67
2022/08/22 05:09:46;;;;;;;16.23;10.68;;;;;;;19.39;76.46;99982.97;1615727;86;27662;-67
2022/08/22 05:12:20;;;;;;;13.65;11.05;;;;;;;19.44;76.36;99981.27;1632369;86;25811;-68
2022/08/22 05:14:52;;;;;;;15.95;10.98;;;;;;;19.49;76.26;99981.52;1619902;86;25617;-67
2022/08/22 05:17:23;;;;;;;12.65;10.32;;;;;;;19.54;76.23;99982.54;1627623;86;25746;-67
2022/08/22 05:19:54;;;;;;;19.62;11.15;;;;;;;19.59;76.28;99987.09;1627398;85;25679;-67
2022/08/22 05:22:28;;;;;;;16.80;10.93;;;;;;;19.67;76.33;99980.32;1633873;87;27519;-66
2022/08/22 05:25:02;;;;;;;16.90;10.55;;;;;;;19.74;76.44;99985.30;1593087;88;25468;-66
2022/08/22 05:27:38;;;;;;;12.28;10.23;;;;;;;19.83;76.29;99985.58;1615833;86;25262;-67
2022/08/22 05:30:15;;;;;;;12.65;9.63;;;;;;;19.90;76.15;99994.67;1623103;86;27673;-67
2022/08/22 05:33:06;;;;;;;17.25;10.25;;;;;;;19.98;76.08;99994.72;1641412;86;25603;-67
2022/08/22 05:35:49;;;;;;;13.55;10.23;;;;;;;20.07;76.05;100000.07;1627523;85;27635;-67
2022/08/22 05:38:20;;;;;;;20.92;10.35;;;;;;;20.16;76.00;99994.28;1640570;85;25398;-67
2022/08/22 05:40:51;;;;;;;15.60;10.28;;;;;;;20.29;76.03;99996.89;1632026;86;25345;-67
2022/08/22 05:43:21;;;;;;;12.20;9.80;;;;;;;20.42;75.89;100002.09;1635681;86;25719;-67
2022/08/22 05:45:48;;;;;;;13.80;10.28;;;;;;;20.52;75.80;99999.41;1635819;86;25650;-67
2022/08/22 05:48:22;;;;;;;14.45;10.55;;;;;;;20.66;75.91;100004.81;1615687;86;27472;-68
2022/08/22 05:50:54;;;;;;;17.25;10.13;;;;;;;20.78;75.51;100004.47;1621588;87;25852;-68
2022/08/22 05:53:34;;;;;;;13.85;9.15;;;;;;;20.92;75.51;100003.75;1623876;87;25469;-69
2022/08/22 05:56:06;;;;;;;19.00;9.83;;;;;;;21.07;75.11;99999.10;1625377;87;25708;-68
2022/08/22 05:58:46;;;;;;;19.87;14.85;;;;;;;21.18;74.85;99997.18;1624700;87;25469;-70
2022/08/22 06:01:24;;;;;;;13.75;10.13;;;;;;;21.35;74.78;100002.53;1625541;87;27485;-72
2022/08/22 06:04:07;;;;;;;13.60;9.18;;;;;;;21.47;74.24;99997.28;1612671;88;25844;-70
2022/08/22 06:06:42;;;;;;;19.15;11.83;;;;;;;21.59;73.99;99996.91;1604639;88;25460;-69
2022/08/22 06:09:39;;;;;;;15.40;11.60;;;;;;;21.75;73.84;99988.86;1603747;87;26448;-70
2022/08/22 06:12:12;;;;;;;11.68;9.23;;;;;;;21.91;73.46;99998.09;1623491;87;25601;-71
2022/08/22 06:14:55;;;;;;;9.98;8.75;;;;;;;22.08;72.88;99992.39;1627589;86;27494;-70
2022/08/22 06:17:30;;;;;;;14.70;9.45;;;;;;;22.19;72.33;99993.95;1606061;87;25589;-71
2022/08/22 06:19:58;;;;;;;13.10;8.90;;;;;;;22.35;71.82;99999.66;1624852;88;25819;-71
2022/08/22 06:22:30;;;;;;;13.45;9.18;;;;;;;22.49;71.65;99993.33;1627727;87;26030;-71
2022/08/22 06:25:15;;;;;;;19.05;11.25;;;;;;;22.63;71.18;99994.69;1611995;88;25656;-73
2022/08/22 06:27:43;;;;;;;13.50;9.00;;;;;;;22.79;71.26;99998.97;1603403;88;27572;-74
2022/08/22 06:30:13;;;;;;;13.35;8.68;;;;;;;22.94;71.10;100000.48;1611144;86;25919;-75
2022/08/22 06:32:48;;;;;;;12.93;8.65;;;;;;;23.09;70.76;99998.48;1591077;87;25837;-72
2022/08/22 06:36:29;;;;;;;13.90;8.43;;;;;;;23.21;70.43;99996.64;1616656;88;26112;-72
2022/08/22 06:38:02;;;;;;;12.98;8.50;;;;;;;23.38;69.95;99995.54;1563473;87;25659;-73
2022/08/22 06:40:30;;;;;;;14.25;8.55;;;;;;;23.52;69.61;99994.69;1544682;90;27589;-73
2022/08/22 06:43:04;;;;;;;11.25;8.53;;;;;;;23.66;69.70;99991.22;1559011;88;25770;-72
2022/08/22 06:45:32;;;;;;;12.25;8.23;;;;;;;23.85;69.40;99991.89;1558281;89;25884;-72
2022/08/22 06:48:12;;;;;;;11.40;7.83;;;;;;;24.04;69.11;99989.97;1583369;87;25780;-74
2022/08/22 06:50:46;;;;;;;9.08;7.80;;;;;;;24.26;68.77;99995.27;1563131;90;25868;-73
2022/08/22 06:53:44;;;;;;;12.10;7.97;;;;;;;24.52;67.99;99994.41;1550587;91;27445;-73
2022/08/22 06:56:12;;;;;;;10.78;8.23;;;;;;;24.75;67.42;99998.73;1530984;92;25778;-73
2022/08/22 06:58:58;;;;;;;13.65;9.73;;;;;;;24.87;66.36;99995.25;1510865;92;25820;-73
2022/08/22 07:01:47;;;;;;;12.45;7.90;;;;;;;24.97;65.75;100001.24;1551902;91;25668;-73
2022/08/22 07:04:26;;;;;;;12.10;8.25;;;;;;;25.07;65.25;100005.85;1517611;92;25617;-72
2022/08/22 07:07:04;;;;;;;12.30;7.83;;;;;;;25.17;64.78;100008.30;1553615;90;27497;-73
2022/08/22 07:09:40;;;;;;;11.20;7.60;;;;;;;25.36;64.64;100011.03;1514334;93;26468;-73
2022/08/22 07:12:20;;;;;;;9.90;7.35;;;;;;;25.53;64.30;100011.37;1511957;93;25831;-74
2022/08/22 07:14:50;;;;;;;;;;;;;;;25.80;64.02;100010.58;1487852;96;26158;-74
2022/08/22 07:17:24;;;;;;;9.80;7.97;;;;;;;26.13;63.59;100007.30;1527855;93;25482;-74
2022/08/22 07:20:23;;;;;;;11.40;7.40;;;;;;;26.34;62.62;100013.86;1526600;92;28082;-74
2022/08/22 07:23:06;;;;;;;8.23;6.85;;;;;;;26.51;61.75;100011.16;1534693;92;25396;-73
2022/08/22 07:25:50;;;;;;;9.75;6.95;;;;;;;26.61;61.04;100012.94;1525367;92;25723;-72
2022/08/22 07:28:28;;;;;;;10.50;7.33;;;;;;;26.64;60.20;100014.89;1531066;92;26155;-73
2022/08/22 07:31:02;;;;;;;9.48;6.60;;;;;;;26.74;60.42;100008.97;1535696;90;25760;-73
2022/08/22 07:33:43;;;;;;;12.35;7.53;;;;;;;26.94;59.98;100017.30;1582274;86;27620;-73
2022/08/22 07:36:35;;;;;;;13.78;7.03;;;;;;;27.18;59.96;100017.36;1624040;86;25529;-73
2022/08/22 07:39:44;;;;;;;11.25;7.45;;;;;;;27.45;59.13;100016.99;1633949;85;25461;-73
2022/08/22 07:42:18;;;;;;;18.00;8.33;;;;;;;27.64;58.48;100012.61;1587732;90;25881;-73
2022/08/22 07:45:05;;;;;;;11.10;7.08;;;;;;;27.91;58.42;100013.74;1588351;88;25805;-73
2022/08/22 07:48:13;;;;;;;9.00;6.97;;;;;;;28.21;57.24;100017.38;1580958;89;27483;-73
2022/08/22 07:51:00;;;;;;;9.90;7.00;;;;;;;28.45;56.97;100009.58;1573891;90;25349;-73
2022/08/22 07:53:40;;;;;;;11.05;6.58;;;;;;;28.81;56.33;100007.22;1466971;96;25596;-73
2022/08/22 07:56:19;;;;;;;11.88;6.53;;;;;;;29.06;55.69;100014.85;1482845;96;25638;-72
2022/08/22 07:58:51;;;;;;;8.93;7.20;;;;;;;29.26;55.14;100022.27;1523108;94;25795;-72
2022/08/22 08:01:21;;;;;;;16.52;7.45;;;;;;;29.49;54.40;100021.14;1516024;94;27554;-73
2022/08/22 08:04:01;;;;;;;6.87;6.15;;;;;;;29.70;53.92;100026.67;1517862;94;25740;-73
2022/08/22 08:06:30;;;;;;;7.55;5.97;;;;;;;29.91;53.39;100021.03;1517939;93;25825;-72
2022/08/22 08:08:57;;;;;;;;;;;;;;;30.21;52.86;100012.65;1520357;94;26233;-73
2022/08/22 08:11:27;;;;;;;8.58;6.45;;;;;;;30.44;51.62;100018.43;1517640;94;25504;-73
2022/08/22 08:13:59;;;;;;;14.65;6.12;;;;;;;30.70;51.27;100019.11;1518161;94;27565;-73
2022/08/22 08:16:30;;;;;;;8.48;6.30;;;;;;;30.88;50.64;100018.43;1517111;94;25917;-73
2022/08/22 08:19:00;;;;;;;11.00;6.72;;;;;;;31.04;50.02;100014.70;1531914;92;25517;-73
2022/08/22 08:21:41;;;;;;;9.23;6.20;;;;;;;31.15;49.58;100012.88;1544734;92;25708;-73
2022/08/22 08:24:13;;;;;;;13.72;6.12;;;;;;;31.36;49.00;100014.67;1549359;92;26026;-72
2022/08/22 08:29:31;;;;;;;10.82;8.48;;;;;;;31.50;48.24;100024.50;1598584;89;25577;-73
2022/08/22 08:31:59;;;;;;;;;;;;;;;31.72;47.77;100018.26;1609372;88;25235;-72
2022/08/22 08:34:27;;;;;;;8.50;5.60;;;;;;;31.88;46.34;100020.63;1608429;88;25555;-72
2022/08/22 08:37:35;;;;;;;8.65;6.15;;;;;;;31.73;45.62;100021.82;1595497;89;25169;-73
2022/08/22 08:40:07;;;;;;;6.42;5.45;;;;;;;31.54;45.58;100018.20;1607664;87;27458;-72
2022/08/22 08:46:27;;;;;;;12.70;6.80;;;;;;;31.06;45.93;100019.20;1602826;89;25617;-73
2022/08/22 08:49:08;;;;;;;7.72;6.05;;;;;;;31.06;46.74;100017.03;1595809;87;25405;-73
2022/08/22 08:52:12;;;;;;;7.85;5.60;;;;;;;31.30;46.29;100023.52;1632842;86;25249;-74
2022/08/22 08:55:09;;;;;;;8.63;5.85;;;;;;;31.13;45.38;100023.73;1626897;86;27485;-73
2022/08/22 08:57:59;;;;;;;9.33;5.85;;;;;;;30.89;45.52;100021.40;1624779;86;25413;-73
2022/08/22 09:01:05;;;;;;;7.20;5.47;;;;;;;30.77;45.36;100018.07;1626874;86;25203;-73
2022/08/22 09:04:08;;;;;;;9.05;5.78;;;;;;;30.56;45.66;100023.03;1616873;86;25473;-74
2022/08/22 09:07:25;;;;;;;8.68;5.42;;;;;;;30.55;46.14;100020.86;1636269;86;25176;-74
2022/08/22 09:10:22;;;;;;;11.22;5.62;;;;;;;30.48;45.79;100025.31;1636219;86;27496;-74
2022/08/22 09:13:05;;;;;;;8.68;6.05;;;;;;;30.41;45.70;100012.39;1619210;86;25732;-75
2022/08/22 09:16:04;;;;;;;7.83;5.90;;;;;;;30.47;45.90;100019.55;1610411;87;25710;-74
2022/08/22 09:18:56;;;;;;;9.98;5.37;;;;;;;30.52;45.67;100015.56;1564485;90;25460;-73
2022/08/22 09:21:46;;;;;;;7.28;6.55;;;;;;;30.44;45.33;100014.25;1533436;93;25200;-73
2022/08/22 09:24:52;;;;;;;6.87;5.67;;;;;;;30.64;46.02;100010.37;1505164;93;27467;-74
2022/08/22 09:27:34;;;;;;;9.93;6.20;;;;;;;31.17;45.91;100013.82;1486771;95;25432;-73
2022/08/22 09:30:16;;;;;;;12.30;7.60;;;;;;;31.42;45.33;100015.02;1490623;95;25397;-75
2022/08/22 09:32:59;;;;;;;12.78;6.00;;;;;;;31.77;44.51;100013.45;1491049;95;25298;-73
2022/08/22 09:35:34;;;;;;;7.67;5.03;;;;;;;32.02;44.33;100010.98;1490261;95;25603;-73
2022/08/22 09:38:34;;;;;;;5.72;5.17;;;;;;;32.02;43.08;100015.19;1486040;95;27511;-73
2022/08/22 09:41:15;;;;;;;7.62;5.50;;;;;;;31.94;42.56;100013.16;1485867;95;26021;-73
2022/08/22 09:43:52;;;;;;;12.75;5.22;;;;;;;31.74;42.66;100010.78;1487893;95;25988;-74
2022/08/22 09:46:23;;;;;;;8.10;5.85;;;;;;;31.63;42.97;100015.42;1481382;95;25675;-73
2022/08/22 09:49:00;;;;;;;9.25;5.83;;;;;;;31.61;43.19;100005.33;1483879;95;25767;-73
2022/08/22 09:51:38;;;;;;;8.60;5.60;;;;;;;31.61;42.80;100006.09;1482359;95;27524;-73
2022/08/22 09:54:44;;;;;;;7.28;5.37;;;;;;;31.49;42.47;99998.59;1471438;96;25552;-72
2022/08/22 09:57:40;;;;;;;8.00;5.33;;;;;;;31.20;42.76;100003.91;1520360;91;25928;-73
2022/08/22 10:00:46;;;;;;;9.23;5.70;;;;;;;31.08;43.70;100006.17;1580867;89;26030;-73
2022/08/22 10:03:53;;;;;;;7.70;5.10;;;;;;;31.27;43.43;100006.41;1518170;93;25780;-73
2022/08/22 10:06:27;;;;;;;7.40;4.47;;;;;;;31.24;42.98;100001.73;1483190;96;27528;-73
2022/08/22 10:09:08;;;;;;;8.13;4.67;;;;;;;31.48;43.78;100002.61;1485825;95;25637;-73
2022/08/22 10:12:08;;;;;;;7.45;4.85;;;;;;;31.93;43.40;100001.83;1486917;94;25864;-73
2022/08/22 10:14:45;;;;;;;8.00;4.95;;;;;;;32.34;42.46;100007.47;1486892;96;25655;-73
2022/08/22 10:17:19;;;;;;;6.15;4.15;;;;;;;32.61;41.59;100001.73;1486933;96;25701;-72
2022/08/22 10:20:12;;;;;;;8.95;4.78;;;;;;;32.61;40.88;100010.73;1487060;96;27513;-71
2022/08/22 10:23:20;;;;;;;9.15;4.62;;;;;;;32.61;40.88;100010.73;1485879;95;25648;-71
2022/08/22 10:25:53;;;;;;;8.48;5.37;;;;;;;32.28;39.95;100009.33;1486727;96;25870;-72
2022/08/22 10:28:46;;;;;;;6.50;4.90;;;;;;;31.89;40.34;100008.18;1486700;95;25560;-72
2022/08/22 10:31:24;;;;;;;7.67;5.05;;;;;;;31.58;40.69;100011.84;1486563;96;26420;-71
2022/08/22 10:34:01;;;;;;;10.95;5.35;;;;;;;31.19;40.83;100014.91;1486650;96;28103;-74
2022/08/22 10:36:48;;;;;;;6.20;5.00;;;;;;;30.88;41.07;100014.25;1486639;96;25716;-72
2022/08/22 10:39:20;;;;;;;8.23;5.33;;;;;;;30.54;41.84;100019.29;1493085;93;25562;-72
2022/08/22 10:42:04;;;;;;;9.18;6.30;;;;;;;30.24;42.20;100018.72;1562591;90;25882;-73
2022/08/22 10:44:41;;;;;;;9.50;5.58;;;;;;;29.99;42.70;100018.95;1617024;86;25821;-73
2022/08/22 10:47:16;;;;;;;9.68;6.00;;;;;;;29.88;43.11;100016.34;1627376;86;28073;-72
2022/08/22 10:50:00;;;;;;;8.30;6.37;;;;;;;29.62;43.48;100017.13;1596189;87;25656;-73
2022/08/22 10:52:34;;;;;;;11.20;5.97;;;;;;;29.42;43.80;100016.58;1578884;89;25481;-70
2022/08/22 10:55:13;;;;;;;12.82;6.60;;;;;;;29.35;44.45;100015.41;1598249;89;25459;-72
2022/08/22 10:58:03;;;;;;;11.43;5.85;;;;;;;29.34;44.78;100017.42;1598420;87;25433;-71
2022/08/22 11:00:44;;;;;;;13.43;6.12;;;;;;;29.40;44.78;100010.05;1598215;88;27325;-73
2022/08/22 11:03:30;;;;;;;11.40;6.42;;;;;;;29.36;44.58;100006.61;1597981;89;25581;-71
2022/08/22 11:06:16;;;;;;;9.65;5.42;;;;;;;29.31;44.82;100015.52;1585807;89;25435;-72
2022/08/22 11:09:31;;;;;;;12.05;6.08;;;;;;;29.31;44.88;100011.97;1578507;89;26653;-72
2022/08/22 11:12:38;;;;;;;13.53;7.55;;;;;;;29.24;44.95;100013.73;1598424;87;25767;-72
2022/08/22 11:15:21;;;;;;;9.93;5.80;;;;;;;29.18;45.19;100010.55;1597760;87;28054;-71
2022/08/22 11:18:20;;;;;;;9.80;5.97;;;;;;;29.15;45.23;100009.42;1591328;88;25737;-71
2022/08/22 11:21:19;;;;;;;15.23;5.87;;;;;;;29.06;45.48;100010.67;1575174;90;26158;-71
2022/08/22 11:24:16;;;;;;;6.90;5.55;;;;;;;28.97;45.70;100007.78;1598108;89;25786;-71
2022/08/22 11:26:59;;;;;;;12.30;6.35;;;;;;;29.03;45.49;100012.36;1581274;87;25927;-71
2022/08/22 11:29:51;;;;;;;10.32;6.35;;;;;;;28.94;45.44;100017.00;1597804;89;27426;-71
2022/08/22 11:32:49;;;;;;;8.95;6.10;;;;;;;28.87;45.48;100012.42;1583031;88;25641;-72
2022/08/22 11:35:26;;;;;;;12.25;6.70;;;;;;;28.87;45.90;100017.99;1595100;89;25579;-71
2022/08/22 11:38:07;;;;;;;11.95;6.40;;;;;;;28.86;46.23;100011.66;1602440;89;25639;-72
2022/08/22 11:41:03;;;;;;;11.18;6.97;;;;;;;28.97;46.16;100016.90;1589161;89;25484;-71
2022/08/22 11:43:53;;;;;;;13.53;6.62;;;;;;;29.02;46.35;100014.95;1587792;89;27349;-70
2022/08/22 11:46:25;;;;;;;11.18;6.50;;;;;;;28.99;46.00;100017.85;1596349;87;26452;-74
2022/08/22 11:49:33;;;;;;;12.60;7.12;;;;;;;28.87;45.99;100020.77;1599507;87;25458;-69
2022/08/22 11:52:16;;;;;;;7.12;6.08;;;;;;;28.68;45.92;100021.89;1610959;87;25505;-69
2022/08/22 11:55:27;;;;;;;10.88;6.00;;;;;;;28.59;46.63;100023.73;1613301;86;25668;-74
2022/08/22 11:58:17;;;;;;;14.93;7.10;;;;;;;28.63;47.19;100021.03;1607223;87;28079;-72
2022/08/22 12:01:05;;;;;;;13.65;8.40;;;;;;;28.66;47.48;100023.56;1604092;87;25715;-71
2022/08/22 12:03:49;;;;;;;16.52;6.35;;;;;;;28.60;47.74;100021.14;1637582;86;25454;-70
2022/08/22 12:06:41;;;;;;;16.50;6.65;;;;;;;28.48;47.85;100017.83;1612390;86;25750;-72
2022/08/22 12:09:18;;;;;;;13.35;6.83;;;;;;;28.46;48.42;100020.27;1647262;85;25616;-71
2022/08/22 12:11:56;;;;;;;22.82;7.30;;;;;;;28.61;48.98;100014.36;1622847;87;27491;-71
2022/08/22 12:14:49;;;;;;;11.38;6.75;;;;;;;28.76;49.13;100014.13;1655772;83;26607;-72
2022/08/22 12:17:47;;;;;;;10.53;6.25;;;;;;;28.97;48.86;100018.91;1567570;89;25453;-74
2022/08/22 12:20:43;;;;;;;11.05;6.33;;;;;;;29.07;48.26;100013.64;1563390;90;25423;-74
2022/08/22 12:23:45;;;;;;;16.17;6.47;;;;;;;29.14;48.61;100018.22;1571749;90;25781;-73
2022/08/22 12:26:45;;;;;;;14.65;6.85;;;;;;;29.29;47.98;100009.63;1542066;91;28137;-71
2022/08/22 12:29:26;;;;;;;17.85;10.23;;;;;;;29.33;47.47;100013.07;1540468;91;25849;-71
2022/08/22 12:32:27;;;;;;;15.30;7.17;;;;;;;29.30;47.31;100013.95;1526195;92;25496;-71
2022/08/22 12:35:19;;;;;;;12.35;6.95;;;;;;;29.27;47.38;100015.45;1546572;91;25845;-69
2022/08/22 12:38:20;;;;;;;10.30;7.20;;;;;;;29.18;47.66;100013.34;1546834;92;25827;-70
2022/08/22 12:41:00;;;;;;;15.83;7.40;;;;;;;29.14;48.19;100013.42;1539043;91;27378;-70
2022/08/22 12:43:51;;;;;;;10.48;6.55;;;;;;;29.11;48.39;100011.52;1546799;91;25617;-70
2022/08/22 12:46:34;;;;;;;10.25;6.75;;;;;;;29.09;48.07;100000.67;1545648;91;25776;-70
2022/08/22 12:49:25;;;;;;;14.78;7.62;;;;;;;29.09;48.45;100004.22;1528702;91;25873;-71
2022/08/22 12:52:03;;;;;;;17.55;7.25;;;;;;;29.08;47.73;100005.44;1520839;92;25949;-70
2022/08/22 12:54:35;;;;;;;12.35;6.78;;;;;;;29.05;48.12;99994.59;1535033;91;27555;-70
2022/08/22 12:57:30;;;;;;;14.93;6.53;;;;;;;29.03;48.48;100001.81;1556523;91;25680;-70
2022/08/22 13:00:08;;;;;;;16.85;6.72;;;;;;;29.04;47.95;100004.78;1560569;90;25942;-70